Tiempo atmosférico en la estación meteorológica de Munera, Albacete (918 m.)



Fecha
DESCASC
Temp. máxima en grados centígrados (hora)
DESCASC
Temp. mínima en grados centígrados (hora)
DESCASC
Temp. media en grados centígrados
DESCASC
Racha de viento máxima en m/sg (hora)
DESCASC
Velocidad máxima media en intervalos de 10 minutos(hora)
DESCASC
Precipitaciones diarias en mm
DESCASC
Precipitaciones de 00:00 a 06:00 en mm
DESCASC
Precipitaciones de 06:00 a 12:00 en mm
DESCASC
Precipitaciones de 12:00 a 18:00 en mm
DESCASC
Precipitaciones de 18:00 a 24:00 en mm
DESCASC
19-01-2020 8.2 (00:00) 0.1 (17:40) 4.1 11.11 (01:00) 4.72 (01:00) 11 6.6 0.6 3.4 0.4
18-01-2020 10.3 (14:00) 2.5 (00:00) 6.4 11.39 (16:10) 5.83 (16:50) 0.8 0 0.8 0 0
17-01-2020 11.5 (14:50) 1 (21:20) 6.3 9.44 (15:20) 4.17 (14:50) 0 0 0 0 0
16-01-2020 14.8 (13:30) -1.9 (-00:0) 6.5 5.83 (14:00) 2.22 (12:30) 0 0 0 0 0
15-01-2020 12.9 (14:50) 0.3 (00:00) 6.6 7.78 (11:20) 3.33 (10:50) 0 0 0 0 0
14-01-2020 10.8 (15:20) -3 (-00:0) 3.9 6.11 (14:30) 2.5 (23:30) 0 0 0 0 0
13-01-2020 11.2 (16:10) -6.8 (-00:0) 2.2 7.22 (15:00) 2.78 (15:00) 0 0 0 0 0
12-01-2020 9.9 (15:10) -6.4 (07:50) 1.7 4.72 (12:00) 2.5 (12:00) 0 0 0 0 0
11-01-2020 9.9 (14:30) -6 (08:20) 1.9 4.44 (15:10) 2.22 (15:30) 0 0 0 0 0
10-01-2020 9.4 (15:40) -3 (23:59) 3.2 6.94 (14:40) 3.61 (16:00) 0 0 0 0 0

Gráficas

Temp. máximas Temp. mínimas Temp. medias Precipitaciones Rachas de viento máximas Velocidades máximas media en intervalos de 10 minutos

Datos horarios

Fecha y hora oficial Temperatura (ºC) Velocidad del viento (km/h) Dirección del viento Racha (km/h) Dirección de racha Precipitación (mm) Presión (hPa) Tendencia (hPa) Humedad (%)
2020-01-21 23:00:00 1.4 3 Este 14 Sudeste 0.8 -- -- 100
2020-01-21 22:00:00 1.5 4 Este 14 Nordeste 0.4 -- -- 100
2020-01-21 21:00:00 1.4 4 Este 11 Este 0.6 -- -- 100
2020-01-21 20:00:00 1.4 2 Sudeste 10 Sudeste 0.4 -- -- 100
2020-01-21 19:00:00 1.4 2 Este 19 Este 0.8 -- -- 100
2020-01-21 18:00:00 1.4 4 Este 16 Nordeste 1 -- -- 100
2020-01-21 17:00:00 1.4 7 Nordeste 22 Nordeste 1.4 -- -- 100
2020-01-21 16:00:00 1.6 7 Nordeste 18 Nordeste 3.2 -- -- 100
2020-01-21 15:00:00 1.2 5 Este 20 Nordeste 3.2 -- -- 100
2020-01-21 14:00:00 1.5 6 Nordeste 19 Este 3 -- -- 100
2020-01-21 13:00:00 0.8 5 Nordeste 15 Nordeste 2.6 -- -- 100
2020-01-21 12:00:00 0.5 4 Nordeste 22 Nordeste 2.4 -- -- 100
2020-01-21 11:00:00 0.8 6 Nordeste 21 Nordeste 2.8 -- -- 100
2020-01-21 10:00:00 0.5 0 Calma -- -- 0.4 -- -- 100
2020-01-21 09:00:00 0.2 0 Calma -- -- 0 -- -- 100
2020-01-21 08:00:00 0.1 0 Calma 6 Nordeste 0 -- -- 100
2020-01-21 07:00:00 0.2 4 Norte 15 Norte 0.2 -- -- 100
2020-01-21 06:00:00 0.6 5 Nordeste 16 Nordeste 0.4 -- -- 100
2020-01-21 05:00:00 0.3 7 Nordeste 18 Nordeste 0.4 -- -- 100
2020-01-21 04:00:00 0.3 5 Nordeste 16 Norte 0.6 -- -- 100
2020-01-21 03:00:00 0.6 5 Nordeste 12 Nordeste 0 -- -- 100
2020-01-21 02:00:00 0.3 0 Calma 4 Norte 0 -- -- 100
2020-01-21 01:00:00 0.2 3 Nordeste 19 Nordeste 0 -- -- 100
2020-01-21 00:00:00 0.4 6 Nordeste 22 Nordeste 0.6 -- -- 100
2020-01-20 23:00:00 0.9 10 Nordeste 25 Este 0.8 -- -- 100
2020-01-20 22:00:00 1.3 11 Nordeste 41 Nordeste 0.6 -- -- 99
2020-01-20 21:00:00 1.3 16 Nordeste 35 Nordeste 0.6 -- -- 100
2020-01-20 20:00:00 1.1 11 Nordeste 37 Nordeste 0.8 -- -- 99
2020-01-20 19:00:00 1.9 10 Nordeste 39 Este 1 -- -- 98
2020-01-20 18:00:00 2.1 13 Este 44 Nordeste 1.2 -- -- 96
2020-01-20 17:00:00 2.1 13 Este 49 Este 1.2 -- -- 96
2020-01-20 16:00:00 1.6 13 Este 46 Este 1.6 -- -- 98
2020-01-20 15:00:00 1.4 13 Este 41 Este 1.6 -- -- 98
2020-01-20 14:00:00 1.1 13 Nordeste 33 Este 1.4 -- -- 97
2020-01-20 13:00:00 0 9 Nordeste 31 Nordeste 0.8 -- -- 98
2020-01-20 12:00:00 -0.2 0 Calma 0 Calma 0.2 -- -- 97
2020-01-20 11:00:00 -0.6 0 Calma 0 Calma 0 -- -- 96
2020-01-20 10:00:00 -1.1 0 Calma 2 Norte 0 -- -- 94
2020-01-20 09:00:00 -0.9 0 Calma -- -- 0 -- -- 93
2020-01-20 08:00:00 -0.7 0 Calma 0 Calma 0 -- -- 90
2020-01-20 07:00:00 -0.5 0 Calma -- -- 0 -- -- 85
2020-01-20 06:00:00 -0.6 0 Calma -- -- 0 -- -- 87
2020-01-20 05:00:00 -0.6 0 Calma -- -- 0.2 -- -- 89
2020-01-20 04:00:00 -0.4 0 Calma -- -- 0 -- -- 87
2020-01-20 03:00:00 -0.2 0 Calma -- -- 0 -- -- 86
2020-01-20 02:00:00 0.1 0 Calma -- -- 0 -- -- 85
2020-01-20 01:00:00 0.3 0 Calma -- -- 0.2 -- -- 81
2020-01-20 00:00:00 0.5 0 Calma -- -- 0 -- -- 87
2020-01-19 23:00:00 0.2 0 Calma -- -- 0 -- -- 100
2020-01-19 22:00:00 0.3 0 Calma -- -- 0.2 -- -- 100
2020-01-19 21:00:00 0.3 0 Calma -- -- 0 -- -- 100
2020-01-19 20:00:00 0.1 0 Calma -- -- 0.2 -- -- 100
2020-01-19 19:00:00 0.1 0 Calma -- -- 0 -- -- 100
2020-01-19 18:00:00 0.1 0 Calma -- -- 0.2 -- -- 100
2020-01-19 17:00:00 0.2 0 Calma -- -- 0.4 -- -- 100
2020-01-19 16:00:00 0.2 0 Calma 11 Nordeste 0 -- -- 99
2020-01-19 15:00:00 1.3 7 Nordeste 26 Nordeste 2.2 -- -- 96
2020-01-19 14:00:00 3.6 11 Nordeste 29 Norte 0.6 -- -- 94
2020-01-19 13:00:00 4.1 9 Norte 23 Norte 0 -- -- 94
2020-01-19 12:00:00 3.5 6 Norte 22 Noroeste 0 -- -- 98
2020-01-19 11:00:00 2.8 9 Noroeste 18 Noroeste 0 -- -- 99
2020-01-19 10:00:00 2.3 7 Noroeste 17 Norte 0 -- -- 99
2020-01-19 09:00:00 1.8 6 Noroeste 21 Noroeste 0.2 -- -- 99
2020-01-19 08:00:00 2.7 8 Noroeste 24 Noroeste 0 -- -- 99
2020-01-19 07:00:00 3.4 8 Noroeste 21 Noroeste 0.4 -- -- 99
2020-01-19 06:00:00 3.7 4 Noroeste 18 Noroeste 0.2 -- -- 98
2020-01-19 05:00:00 3.2 6 Noroeste 16 Oeste 0.2 -- -- 98
2020-01-19 04:00:00 2.5 5 Noroeste 33 Noroeste 5.6 -- -- 98
2020-01-19 03:00:00 5.3 10 Noroeste 27 Noroeste 0.2 -- -- 96
2020-01-19 02:00:00 5.1 5 Oeste 27 Noroeste 0.2 -- -- 97
2020-01-19 01:00:00 6 17 Noroeste 40 Noroeste 0.2 -- -- 86
2020-01-19 00:00:00 8.2 12 Sudoeste 28 Sudoeste 0 -- -- 95
2020-01-18 23:00:00 8.5 9 Sudoeste 36 Oeste 0 -- -- 95
2020-01-18 22:00:00 8.4 12 Oeste 32 Oeste 0 -- -- 96
2020-01-18 21:00:00 7.9 14 Sudoeste 34 Sudoeste 0 -- -- 97
2020-01-18 20:00:00 7.7 13 Sudoeste 31 Sudoeste 0 -- -- 96
2020-01-18 19:00:00 7.6 14 Sudoeste 34 Oeste 0 -- -- 95
2020-01-18 18:00:00 7.4 16 Sudoeste 40 Sudoeste 0 -- -- 93
2020-01-18 17:00:00 8 21 Sudoeste 41 Sudoeste 0 -- -- 90
2020-01-18 16:00:00 9.3 19 Sudoeste 38 Sudoeste 0 -- -- 82
2020-01-18 15:00:00 10 11 Sudoeste 33 Oeste 0 -- -- 80
2020-01-18 14:00:00 10.3 14 Sudoeste 35 Sudoeste 0 -- -- 76
2020-01-18 13:00:00 9 13 Sudoeste 34 Sudoeste 0 -- -- 86
2020-01-18 12:00:00 7.9 9 Sudoeste 19 Sudoeste 0 -- -- 95
2020-01-18 11:00:00 6.6 3 Sudoeste 15 Sur 0 -- -- 99
2020-01-18 10:00:00 5.6 5 Sudoeste 11 Sudoeste 0.4 -- -- 99
2020-01-18 09:00:00 4.8 4 Sur 10 Sur 0.4 -- -- 98
2020-01-18 08:00:00 4 3 Sudoeste 8 Sudoeste 0 -- -- 97
2020-01-18 07:00:00 3.5 3 Sur 8 Sudoeste 0 -- -- 97
2020-01-18 06:00:00 3 3 Sur 8 Sur 0 -- -- 97
2020-01-18 05:00:00 2.6 2 Sudoeste 5 Sudoeste 0 -- -- 96
2020-01-18 04:00:00 2.7 2 Sur 5 Noroeste 0 -- -- 95
2020-01-18 03:00:00 2.8 0 Calma 6 Sur 0 -- -- 94
2020-01-18 02:00:00 3.3 3 Sur 9 Sudoeste 0 -- -- 93
2020-01-18 01:00:00 3.3 5 Sur 10 Sur 0 -- -- 95
2020-01-18 00:00:00 2.5 3 Sur 6 Sur 0 -- -- 95
2020-01-17 23:00:00 1.9 3 Sur 6 Sudoeste 0 -- -- 94
2020-01-17 22:00:00 1.4 0 Calma 8 Sur 0 -- -- 93
2020-01-17 21:00:00 1.3 3 Sur 9 Sur 0 -- -- 88
2020-01-17 20:00:00 3.2 3 Sur 13 Noroeste 0 -- -- 82
2020-01-17 19:00:00 6.1 4 Oeste 13 Oeste 0 -- -- 78
2020-01-17 18:00:00 8.4 4 Noroeste 22 Oeste 0 -- -- 70
2020-01-17 17:00:00 10.1 5 Oeste 26 Sudoeste 0 -- -- 65
2020-01-17 16:00:00 10.8 10 Oeste 34 Oeste 0 -- -- 62
2020-01-17 15:00:00 11.3 10 Oeste 32 Oeste 0 -- -- 60
2020-01-17 14:00:00 10 12 Oeste 32 Oeste 0 -- -- 68
2020-01-17 13:00:00 9.6 11 Oeste 28 Oeste 0 -- -- 74
2020-01-17 12:00:00 9.5 13 Oeste 33 Oeste 0 -- -- 76
2020-01-17 11:00:00 8.4 13 Oeste 27 Oeste 0 -- -- 79
2020-01-17 10:00:00 6.8 5 Sudoeste 17 Sudoeste 0 -- -- 77
2020-01-17 09:00:00 6.4 6 Sudoeste 23 Oeste 0 -- -- 73
2020-01-17 08:00:00 5.9 6 Sudoeste 16 Sudoeste 0 -- -- 71
2020-01-17 07:00:00 6 8 Sudoeste 19 Sudoeste 0 -- -- 70
2020-01-17 06:00:00 5.3 8 Sudoeste 20 Sudoeste 0 -- -- 71
2020-01-17 05:00:00 4.2 5 Sudoeste 17 Sudoeste 0 -- -- 75
2020-01-17 04:00:00 3.5 8 Sudoeste 18 Sudoeste 0 -- -- 78
2020-01-17 03:00:00 3.5 6 Sudoeste 18 Sudoeste 0 -- -- 74
2020-01-17 02:00:00 2.5 6 Sudoeste 15 Sudoeste 0 -- -- 77
2020-01-17 01:00:00 2.1 5 Sudoeste 11 Sudoeste 0 -- -- 79
2020-01-17 00:00:00 3.3 5 Sudoeste 16 Sudoeste 0 -- -- 74
2020-01-16 23:00:00 3.9 8 Sudoeste 16 Sur 0 -- -- 75
2020-01-16 22:00:00 2.5 5 Sur 10 Sur 0 -- -- 76
2020-01-16 21:00:00 2.8 4 Sur 9 Sur 0 -- -- 75
2020-01-16 20:00:00 3.6 5 Sur 9 Sur 0 -- -- 73
2020-01-16 19:00:00 6 4 Sur 9 Sur 0 -- -- 67
2020-01-16 18:00:00 10.2 4 Sudoeste 14 Sudoeste 0 -- -- 57
2020-01-16 17:00:00 12.6 8 Sudoeste 18 Sudoeste 0 -- -- 52
2020-01-16 16:00:00 14.2 5 Oeste 20 Sudoeste 0 -- -- 48
2020-01-16 15:00:00 13.5 8 Oeste 20 Oeste 0 -- -- 49
2020-01-16 14:00:00 14.1 8 Oeste 21 Oeste 0 -- -- 48
2020-01-16 13:00:00 14.2 7 Sudoeste 19 Oeste 0 -- -- 52
2020-01-16 12:00:00 12.8 4 Sudoeste 12 Sudoeste 0 -- -- 57
2020-01-16 11:00:00 8.5 4 Sur 10 Sur 0 -- -- 76
2020-01-16 10:00:00 0.6 3 Sur 8 Sur 0 -- -- 99
2020-01-16 09:00:00 -1.9 4 Sur 6 Sur 0 -- -- 96
2020-01-16 08:00:00 -1.7 3 Sur 9 Sur 0 -- -- 94
2020-01-16 07:00:00 -1.5 4 Sur 8 Sur 0 -- -- 94
2020-01-16 06:00:00 -1 4 Sur 8 Sur 0 -- -- 92
2020-01-16 05:00:00 -0.5 4 Sur 8 Sur 0 -- -- 91
2020-01-16 04:00:00 0.3 4 Sur 9 Sudoeste 0 -- -- 87
2020-01-16 03:00:00 1.3 4 Sur 8 Sur 0 -- -- 86
2020-01-16 02:00:00 1.5 3 Sur 10 Sur 0 -- -- 86
2020-01-16 01:00:00 1.9 5 Sur 8 Sur 0 -- -- 90
2020-01-16 00:00:00 0.4 4 Sur 9 Sur 0 -- -- 90
2020-01-15 23:00:00 0.9 4 Sur 7 Sur 0 -- -- 86
2020-01-15 22:00:00 2 4 Sur 6 Sur 0 -- -- 82
2020-01-15 21:00:00 3.8 3 Sur 5 Oeste 0 -- -- 76
2020-01-15 20:00:00 6.3 4 Sudoeste 9 Sudoeste 0 -- -- 72
2020-01-15 19:00:00 6.3 3 Sur 7 Sudoeste 0 -- -- 71
2020-01-15 18:00:00 9.3 2 Sudoeste 15 Oeste 0 -- -- 61
2020-01-15 17:00:00 11 3 Oeste 22 Sudoeste 0 -- -- 55
2020-01-15 16:00:00 12.5 6 Oeste 26 Sudoeste 0 -- -- 54
2020-01-15 15:00:00 12.7 10 Oeste 28 Oeste 0 -- -- 53
2020-01-15 14:00:00 11.4 9 Oeste 23 Oeste 0 -- -- 54
2020-01-15 13:00:00 10.8 8 Oeste 27 Oeste 0 -- -- 57
2020-01-15 12:00:00 10.3 8 Sudoeste 28 Sudoeste 0 -- -- 67
2020-01-15 11:00:00 7 10 Sudoeste 24 Sudoeste 0 -- -- 80
2020-01-15 10:00:00 3.2 9 Sudoeste 23 Sudoeste 0 -- -- 92
2020-01-15 09:00:00 1.4 8 Sudoeste 17 Sudoeste 0 -- -- 97
2020-01-15 08:00:00 0.7 6 Sur 15 Sudoeste 0 -- -- 97
2020-01-15 07:00:00 0.6 6 Sur 12 Sudoeste 0 -- -- 95
2020-01-15 06:00:00 1.3 5 Sur 15 Sudoeste 0 -- -- 94
2020-01-15 05:00:00 0.5 6 Sudoeste 13 Sudoeste 0 -- -- 95
2020-01-15 04:00:00 0.6 6 Sudoeste 17 Sudoeste 0 -- -- 92
2020-01-15 03:00:00 1.3 8 Sudoeste 17 Sudoeste 0 -- -- 92
2020-01-15 02:00:00 2 7 Sudoeste 22 Oeste 0 -- -- 89
2020-01-15 01:00:00 1.7 7 Sudoeste 18 Sudoeste 0 -- -- 90